Eutaw, Alabama
Current Conditions -  °F | °C
As of 2:15 PM on Sunday 23 Nov 2014 (Local Time) from KDYA Reporting Station
Broken Clouds Broken Clouds  
Wind Chill: 68°   Ceiling: 2600
Heat Index: 68°   Visibility: 10mi
Dew Point: 61°   Wind: 15mph
Humidity: 78%   Direction: 200°SSW
Pressure: 29.53"   Gusts: 22mph
Location:  32.84°N, 87.89°W
Report Text: KDYA 232015Z AUTO 20013G19KT 10SM BKN026 BKN034 BKN041 20/16 A2953 RMK AO2 T02000161
Loading
Personal Weather Stations






























Interactive Weather Map New forecast layout! Learn more

10-Day Weather Forecast

Advertisements
Track Severe Weather on mobile